createdAt,value
2022-08-17T00:02:25.455Z,75.84
2022-08-17T00:04:54.226Z,75.52
2022-08-17T00:07:21.091Z,75.23
2022-08-17T00:09:47.859Z,75.21
2022-08-17T00:12:43.284Z,75.23
2022-08-17T00:15:01.405Z,75.08
2022-08-17T00:17:30.678Z,75.78
2022-08-17T00:19:57.432Z,76.04
2022-08-17T00:22:34.430Z,75.46
2022-08-17T00:25:07.355Z,75.53
2022-08-17T00:27:34.731Z,75.74
2022-08-17T00:30:01.517Z,76.14
2022-08-17T00:33:15.280Z,76.26
2022-08-17T00:35:18.418Z,76.52
2022-08-17T00:37:45.341Z,77.53
2022-08-17T00:40:14.678Z,77.70
2022-08-17T00:42:42.782Z,77.46
2022-08-17T00:45:12.333Z,78.41
2022-08-17T00:47:39.435Z,78.01
2022-08-17T00:50:09.112Z,77.98
2022-08-17T00:52:41.456Z,78.10
2022-08-17T00:55:08.923Z,77.91
2022-08-17T00:57:42.415Z,78.27
2022-08-17T01:00:17.282Z,78.70
2022-08-17T01:02:47.232Z,79.30
2022-08-17T01:05:26.428Z,79.93
2022-08-17T01:07:55.349Z,79.38
2022-08-17T01:10:59.609Z,79.34
2022-08-17T01:13:25.936Z,79.82
2022-08-17T01:16:02.163Z,79.96
2022-08-17T01:18:29.148Z,79.79
2022-08-17T01:20:59.023Z,80.79
2022-08-17T01:23:28.940Z,80.80
2022-08-17T01:26:01.495Z,80.43
2022-08-17T01:28:55.058Z,80.36
2022-08-17T01:31:21.987Z,81.18
2022-08-17T01:33:48.745Z,80.71
2022-08-17T01:36:15.516Z,80.12
2022-08-17T01:38:42.290Z,80.75
2022-08-17T01:41:13.697Z,80.97
2022-08-17T01:43:54.916Z,81.80
2022-08-17T01:46:25.004Z,82.07
2022-08-17T01:48:51.884Z,82.24
2022-08-17T01:51:20.016Z,82.06
2022-08-17T01:53:53.802Z,82.43
2022-08-17T01:56:23.501Z,82.60
2022-08-17T01:58:50.583Z,82.78
2022-08-17T02:01:20.219Z,82.74
2022-08-17T02:03:59.680Z,83.29
2022-08-17T02:06:52.675Z,83.62
2022-08-17T02:09:29.649Z,83.52
2022-08-17T02:11:59.307Z,83.39
2022-08-17T02:14:26.967Z,83.31
2022-08-17T02:16:54.353Z,83.49
2022-08-17T02:19:22.052Z,84.26
2022-08-17T02:21:51.588Z,83.94
2022-08-17T02:25:01.043Z,83.84
2022-08-17T02:27:19.746Z,82.84
2022-08-17T02:29:46.516Z,83.01
2022-08-17T02:32:25.289Z,83.03
2022-08-17T02:34:55.464Z,83.82
2022-08-17T02:37:22.301Z,84.47
2022-08-17T02:39:49.013Z,83.94
2022-08-17T02:42:15.807Z,83.99
2022-08-17T02:44:42.664Z,83.56
2022-08-17T02:47:11.160Z,83.29
2022-08-17T02:49:38.238Z,83.41
2022-08-17T02:52:07.556Z,83.94
2022-08-17T02:54:41.221Z,84.17
2022-08-17T02:57:10.236Z,84.93
2022-08-17T02:59:38.346Z,84.38
2022-08-17T03:02:08.248Z,84.06
2022-08-17T03:04:35.488Z,84.52
2022-08-17T03:07:05.459Z,84.53
2022-08-17T03:09:32.342Z,84.84
2022-08-17T03:12:12.492Z,84.23
2022-08-17T03:14:43.762Z,84.29
2022-08-17T03:17:11.274Z,83.94
2022-08-17T03:19:44.365Z,84.13
2022-08-17T03:22:36.246Z,84.14
2022-08-17T03:24:58.101Z,83.88
2022-08-17T03:27:24.793Z,84.42
2022-08-17T03:29:55.292Z,83.95
2022-08-17T03:32:22.111Z,84.34
2022-08-17T03:34:51.791Z,84.95
2022-08-17T03:37:18.648Z,84.89
2022-08-17T03:39:45.383Z,84.89
2022-08-17T03:42:31.835Z,83.97
2022-08-17T03:45:00.401Z,84.38
2022-08-17T03:47:45.779Z,84.16
2022-08-17T03:50:32.817Z,83.78
2022-08-17T03:53:18.275Z,83.50
2022-08-17T03:56:03.373Z,83.83
2022-08-17T03:58:30.167Z,83.78
2022-08-17T04:00:57.047Z,83.80
2022-08-17T04:03:23.860Z,83.37
2022-08-17T04:05:50.644Z,83.51
2022-08-17T04:08:17.352Z,83.15
2022-08-17T04:10:44.883Z,83.53
2022-08-17T04:13:12.971Z,83.10
2022-08-17T04:15:40.102Z,82.88
2022-08-17T04:18:07.741Z,82.52
2022-08-17T04:20:37.818Z,82.58
2022-08-17T04:23:10.487Z,82.36
2022-08-17T04:25:41.733Z,81.86
2022-08-17T04:28:15.521Z,81.88
2022-08-17T04:30:45.394Z,82.09
2022-08-17T04:33:18.097Z,82.27
2022-08-17T04:35:49.032Z,81.51
2022-08-17T04:38:18.387Z,81.40
2022-08-17T04:41:03.571Z,81.83
2022-08-17T04:43:32.383Z,82.09
2022-08-17T04:46:02.363Z,81.64
2022-08-17T04:48:36.381Z,82.40
2022-08-17T04:51:26.343Z,82.24
2022-08-17T04:53:57.002Z,81.69
2022-08-17T04:56:26.123Z,81.10
2022-08-17T04:58:57.096Z,81.03
2022-08-17T05:01:28.215Z,80.71
2022-08-17T05:03:59.059Z,80.81
2022-08-17T05:06:27.605Z,81.09
2022-08-17T05:08:55.175Z,80.86
2022-08-17T05:11:23.331Z,80.75
2022-08-17T05:13:50.445Z,79.92
2022-08-17T05:16:18.151Z,79.81
2022-08-17T05:18:45.053Z,79.91
2022-08-17T05:21:11.871Z,79.64
2022-08-17T05:23:43.087Z,78.92
2022-08-17T05:26:22.562Z,78.90
2022-08-17T05:28:59.557Z,78.32
2022-08-17T05:31:29.012Z,77.64
2022-08-17T05:33:56.318Z,77.68
2022-08-17T05:36:41.963Z,77.50
2022-08-17T05:39:10.766Z,77.25
2022-08-17T05:41:44.175Z,76.86
2022-08-17T05:44:10.951Z,76.39
2022-08-17T05:46:42.009Z,75.88
2022-08-17T05:49:08.942Z,75.26
2022-08-17T05:51:50.028Z,74.71
2022-08-17T05:54:19.591Z,74.67
2022-08-17T05:57:06.988Z,74.70
2022-08-17T06:00:01.033Z,75.34
2022-08-17T06:02:48.026Z,74.81
2022-08-17T06:05:15.231Z,75.15
2022-08-17T06:08:02.592Z,74.45
2022-08-17T06:10:38.293Z,73.95
2022-08-17T06:13:59.336Z,73.49
2022-08-17T06:16:34.275Z,72.78
2022-08-17T06:19:06.430Z,73.05
2022-08-17T06:21:39.715Z,73.06
2022-08-17T06:24:20.966Z,72.89
2022-08-17T06:26:48.571Z,72.54
2022-08-17T06:29:35.140Z,72.23
2022-08-17T06:32:03.344Z,73.15
2022-08-17T06:34:30.126Z,72.59
2022-08-17T06:37:25.239Z,72.41
2022-08-17T06:40:01.169Z,72.30
2022-08-17T06:43:06.577Z,72.35
2022-08-17T06:45:49.378Z,71.80
2022-08-17T06:48:25.503Z,71.61
2022-08-17T06:51:00.078Z,70.97
2022-08-17T06:53:42.481Z,71.17
2022-08-17T06:56:11.884Z,70.36
2022-08-17T06:58:41.338Z,70.37
2022-08-17T07:01:23.324Z,70.05
2022-08-17T07:04:11.916Z,69.72
2022-08-17T07:06:54.643Z,69.46
2022-08-17T07:09:51.444Z,68.93
2022-08-17T07:12:22.837Z,69.59
2022-08-17T07:14:54.477Z,69.24
2022-08-17T07:17:47.045Z,69.49
2022-08-17T07:20:15.171Z,69.03
2022-08-17T07:22:51.923Z,68.81
2022-08-17T07:25:26.451Z,68.34
2022-08-17T07:27:59.886Z,68.11
2022-08-17T07:30:51.284Z,67.66
2022-08-17T07:33:24.430Z,67.45
2022-08-17T07:35:51.348Z,68.07
2022-08-17T07:38:33.315Z,67.87
2022-08-17T07:41:05.398Z,66.64
2022-08-17T07:43:40.978Z,66.13
2022-08-17T07:46:47.617Z,66.33
2022-08-17T07:49:14.174Z,66.81
2022-08-17T07:51:43.987Z,66.73
2022-08-17T07:54:22.701Z,66.53
2022-08-17T07:57:03.468Z,66.61
2022-08-17T07:59:35.586Z,66.52
2022-08-17T08:02:16.347Z,66.59
2022-08-17T08:05:00.488Z,65.56
2022-08-17T08:07:38.327Z,65.14
2022-08-17T08:10:10.834Z,66.45
2022-08-17T08:12:39.652Z,66.48
2022-08-17T08:15:17.806Z,65.68
2022-08-17T08:17:55.510Z,65.38
2022-08-17T08:20:52.910Z,64.60
2022-08-17T08:23:29.634Z,64.40
2022-08-17T08:26:31.778Z,64.14
2022-08-17T08:29:08.403Z,62.76
2022-08-17T08:32:02.727Z,62.65
2022-08-17T08:35:01.484Z,62.25
2022-08-17T08:37:47.295Z,61.89
2022-08-17T08:40:42.987Z,61.04
2022-08-17T08:44:06.526Z,61.16
2022-08-17T08:46:54.143Z,61.11
2022-08-17T08:50:06.113Z,61.27
2022-08-17T08:52:40.049Z,60.74
2022-08-17T08:55:34.798Z,60.54
2022-08-17T08:58:31.563Z,60.24
2022-08-17T09:00:58.831Z,58.79
2022-08-17T09:03:52.357Z,57.89
2022-08-17T09:06:47.825Z,56.81
2022-08-17T09:09:39.053Z,55.99
2022-08-17T09:12:16.884Z,55.19
2022-08-17T09:14:57.565Z,54.41
2022-08-17T09:17:33.409Z,54.41
2022-08-17T09:20:27.603Z,54.75
2022-08-17T09:23:07.160Z,53.87
2022-08-17T09:25:45.502Z,54.32
2022-08-17T09:28:20.420Z,54.72
2022-08-17T09:30:53.661Z,54.56
2022-08-17T09:33:26.885Z,54.37
2022-08-17T09:36:16.483Z,54.36
2022-08-17T09:38:49.314Z,54.29
2022-08-17T09:41:53.309Z,54.57
2022-08-17T09:44:32.191Z,55.03
2022-08-17T09:47:46.805Z,55.09
2022-08-17T09:50:20.176Z,55.43
2022-08-17T09:53:08.008Z,55.73
2022-08-17T09:55:59.282Z,55.14
2022-08-17T09:58:38.997Z,54.94
2022-08-17T10:01:16.678Z,54.38
2022-08-17T10:03:51.049Z,53.92
2022-08-17T10:06:33.877Z,52.82
2022-08-17T10:09:10.464Z,53.38
2022-08-17T10:12:00.530Z,54.16
2022-08-17T10:14:44.439Z,53.50
2022-08-17T10:17:21.634Z,53.52
2022-08-17T10:20:01.183Z,52.17
2022-08-17T10:23:21.083Z,53.20
2022-08-17T10:26:14.558Z,52.88
2022-08-17T10:28:53.263Z,52.30
2022-08-17T10:31:36.565Z,52.34
2022-08-17T10:34:27.301Z,51.33
2022-08-17T10:37:19.825Z,50.69
2022-08-17T10:40:32.569Z,50.78
2022-08-17T10:42:59.356Z,51.43
2022-08-17T10:45:46.099Z,51.11
2022-08-17T10:48:14.001Z,51.78
2022-08-17T10:50:49.702Z,51.48
2022-08-17T10:53:31.913Z,51.41
2022-08-17T10:56:13.954Z,49.84
2022-08-17T10:59:07.246Z,49.56
2022-08-17T11:01:42.173Z,50.56
2022-08-17T11:04:45.698Z,49.44
2022-08-17T11:07:19.159Z,49.17
2022-08-17T11:10:08.617Z,50.37
2022-08-17T11:12:44.212Z,48.98
2022-08-17T11:15:32.379Z,47.70
2022-08-17T11:18:01.526Z,47.36
2022-08-17T11:20:41.455Z,47.15
2022-08-17T11:23:32.694Z,47.21
2022-08-17T11:26:09.431Z,48.13
2022-08-17T11:28:48.696Z,46.51
2022-08-17T11:31:40.190Z,46.92
2022-08-17T11:34:26.516Z,48.00
2022-08-17T11:36:53.309Z,47.98
2022-08-17T11:39:39.739Z,47.48
2022-08-17T11:42:34.440Z,46.96
2022-08-17T11:45:38.610Z,46.74
2022-08-17T11:48:44.555Z,45.72
2022-08-17T11:51:40.593Z,46.21
2022-08-17T11:54:33.450Z,45.59
2022-08-17T11:57:21.612Z,45.39
2022-08-17T11:59:48.376Z,46.08
2022-08-17T12:05:14.356Z,47.37
2022-08-17T12:08:07.505Z,47.88
2022-08-17T12:10:58.898Z,49.09
2022-08-17T12:13:30.608Z,48.41
2022-08-17T12:16:05.818Z,47.73
2022-08-17T12:18:37.418Z,46.78
2022-08-17T12:21:28.690Z,46.65
2022-08-17T12:24:15.619Z,45.55
2022-08-17T12:26:44.239Z,45.48
2022-08-17T12:29:38.932Z,45.86
2022-08-17T12:32:13.143Z,44.26
2022-08-17T12:34:43.439Z,44.06
2022-08-17T12:37:24.982Z,43.24
2022-08-17T12:40:24.780Z,43.77
2022-08-17T12:43:18.674Z,44.18
2022-08-17T12:45:54.019Z,44.49
2022-08-17T12:48:26.302Z,45.47
2022-08-17T12:51:00.948Z,45.82
2022-08-17T12:53:35.252Z,46.76
2022-08-17T12:56:07.906Z,47.92
2022-08-17T12:58:45.735Z,47.52
2022-08-17T13:01:18.594Z,48.25
2022-08-17T13:03:52.818Z,47.25
2022-08-17T13:07:00.075Z,47.96
2022-08-17T13:09:35.257Z,47.89
2022-08-17T13:12:05.089Z,47.29
2022-08-17T13:14:33.373Z,45.79
2022-08-17T13:17:02.587Z,44.90
2022-08-17T13:19:40.360Z,44.64
2022-08-17T13:22:12.463Z,44.11
2022-08-17T13:24:53.234Z,42.98
2022-08-17T13:27:23.901Z,42.86
2022-08-17T13:29:54.170Z,43.15
2022-08-17T13:32:32.851Z,41.56
2022-08-17T13:35:11.931Z,41.00
2022-08-17T13:37:43.402Z,40.80
2022-08-17T13:40:12.731Z,39.72
2022-08-17T13:42:51.822Z,39.59
2022-08-17T13:45:35.637Z,41.69
2022-08-17T13:48:07.396Z,45.70
2022-08-17T13:50:36.228Z,46.84
2022-08-17T13:53:15.022Z,48.05
2022-08-17T13:55:48.958Z,47.71
2022-08-17T13:58:21.975Z,47.14
2022-08-17T14:00:50.754Z,44.07
2022-08-17T14:03:18.182Z,44.49
2022-08-17T14:05:46.138Z,44.71
2022-08-17T14:08:15.722Z,43.72
2022-08-17T14:10:43.733Z,44.78
2022-08-17T14:13:10.873Z,44.93
2022-08-17T14:15:56.124Z,46.79
2022-08-17T14:18:31.135Z,47.59
2022-08-17T14:21:10.761Z,48.50
2022-08-17T14:23:37.711Z,47.82
2022-08-17T14:26:04.954Z,48.45
2022-08-17T14:28:32.085Z,48.01
2022-08-17T14:31:00.447Z,48.06
2022-08-17T14:33:28.710Z,48.26
2022-08-17T14:35:56.069Z,47.96
2022-08-17T14:38:22.862Z,49.29
2022-08-17T14:40:49.863Z,54.36
2022-08-17T14:43:17.992Z,62.97
2022-08-17T14:45:48.002Z,67.28
2022-08-17T14:48:14.834Z,66.29
2022-08-17T14:50:43.565Z,69.87
2022-08-17T14:53:13.705Z,69.30
2022-08-17T14:55:43.063Z,68.68
2022-08-17T14:58:10.457Z,69.28
2022-08-17T15:00:43.792Z,69.86
2022-08-17T15:03:11.867Z,69.97
2022-08-17T15:05:39.320Z,70.53
2022-08-17T15:08:24.126Z,69.68
2022-08-17T15:10:54.282Z,67.05
2022-08-17T15:13:27.757Z,65.57
2022-08-17T15:15:54.859Z,67.35
2022-08-17T15:18:21.789Z,68.56
2022-08-17T15:20:50.183Z,68.41
2022-08-17T15:23:20.778Z,68.29
2022-08-17T15:25:53.675Z,69.00
2022-08-17T15:28:23.294Z,68.76
2022-08-17T15:30:51.357Z,70.55
2022-08-17T15:33:33.570Z,71.00
2022-08-17T15:36:03.705Z,70.67
2022-08-17T15:38:34.068Z,69.57
2022-08-17T15:41:35.733Z,69.74
2022-08-17T15:44:03.000Z,70.12
2022-08-17T15:46:29.707Z,69.88
2022-08-17T15:49:05.761Z,69.91
2022-08-17T15:51:35.684Z,69.37
2022-08-17T15:54:17.258Z,70.11
2022-08-17T15:56:48.018Z,70.74
2022-08-17T15:59:14.723Z,71.10
2022-08-17T16:03:14.041Z,70.75
2022-08-17T16:04:30.867Z,70.94
2022-08-17T16:06:59.728Z,71.11
2022-08-17T16:09:26.588Z,71.13
2022-08-17T16:11:55.445Z,71.95
2022-08-17T16:14:24.077Z,72.71
2022-08-17T16:16:54.306Z,72.41
2022-08-17T16:19:21.044Z,71.57
2022-08-17T16:21:47.791Z,70.56
2022-08-17T16:24:14.875Z,69.75
2022-08-17T16:26:42.824Z,69.03
2022-08-17T16:29:10.781Z,69.85
2022-08-17T16:31:41.990Z,70.85
2022-08-17T16:34:17.482Z,71.67
2022-08-17T16:36:55.168Z,72.08
2022-08-17T16:39:28.420Z,73.15
2022-08-17T16:41:56.700Z,73.63
2022-08-17T16:44:23.554Z,73.85
2022-08-17T16:46:50.655Z,74.30
2022-08-17T16:49:35.146Z,74.77
2022-08-17T16:52:03.962Z,74.61
2022-08-17T16:54:30.699Z,74.84
2022-08-17T16:56:57.406Z,74.96
2022-08-17T16:59:31.180Z,74.70
2022-08-17T17:05:31.277Z,74.61
2022-08-17T17:08:04.143Z,74.89
2022-08-17T17:10:49.448Z,75.86
2022-08-17T17:13:25.187Z,75.83
2022-08-17T17:16:06.660Z,77.02
2022-08-17T17:19:05.035Z,77.19
2022-08-17T17:22:01.632Z,77.14
2022-08-17T17:24:39.916Z,77.20
2022-08-17T17:27:20.325Z,78.56
2022-08-17T17:30:07.777Z,80.45
2022-08-17T17:33:00.759Z,80.89
2022-08-17T17:35:53.891Z,81.78
2022-08-17T17:38:29.212Z,82.05
2022-08-17T17:41:07.612Z,82.93
2022-08-17T17:43:39.687Z,83.49
2022-08-17T17:46:28.554Z,83.37
2022-08-17T17:49:00.552Z,84.29
2022-08-17T17:52:08.001Z,84.64
2022-08-17T17:55:04.460Z,84.26
2022-08-17T17:57:37.185Z,83.20
2022-08-17T18:00:15.605Z,82.75
2022-08-17T18:02:54.153Z,83.50
2022-08-17T18:05:47.673Z,83.33
2022-08-17T18:08:32.090Z,84.32
2022-08-17T18:11:24.136Z,84.96
2022-08-17T18:14:02.490Z,84.79
2022-08-17T18:16:32.886Z,84.51
2022-08-17T18:19:00.770Z,84.51
2022-08-17T18:21:40.155Z,85.13
2022-08-17T18:24:10.783Z,84.93
2022-08-17T18:26:50.619Z,84.51
2022-08-17T18:29:31.976Z,84.20
2022-08-17T18:32:16.915Z,83.92
2022-08-17T18:34:49.518Z,84.47
2022-08-17T18:37:45.592Z,83.89
2022-08-17T18:40:20.748Z,83.72
2022-08-17T18:43:14.200Z,83.44
2022-08-17T18:45:53.558Z,83.29
2022-08-17T18:48:33.890Z,83.32
2022-08-17T18:51:40.366Z,82.44
2022-08-17T18:54:23.752Z,82.58
2022-08-17T18:56:50.476Z,83.15
2022-08-17T18:59:28.854Z,83.63
2022-08-17T19:02:45.085Z,83.50
2022-08-17T19:05:13.556Z,84.17
2022-08-17T19:07:46.735Z,84.49
2022-08-17T19:10:46.121Z,84.12
2022-08-17T19:13:24.299Z,84.47
2022-08-17T19:16:15.745Z,84.25
2022-08-17T19:18:52.654Z,84.25
2022-08-17T19:21:25.639Z,84.24
2022-08-17T19:24:22.631Z,84.44
2022-08-17T19:26:58.942Z,84.03
2022-08-17T19:29:37.501Z,84.16
2022-08-17T19:32:07.073Z,84.17
2022-08-17T19:34:36.984Z,84.69
2022-08-17T19:37:12.685Z,84.58
2022-08-17T19:39:50.483Z,84.80
2022-08-17T19:42:55.562Z,84.68
2022-08-17T19:45:56.241Z,85.13
2022-08-17T19:48:40.946Z,84.99
2022-08-17T19:51:17.766Z,84.45
2022-08-17T19:54:16.140Z,84.41
2022-08-17T19:57:20.294Z,84.73
2022-08-17T20:00:13.621Z,84.73
2022-08-17T20:03:07.533Z,85.32
2022-08-17T20:06:01.414Z,85.40
2022-08-17T20:08:39.406Z,85.75
2022-08-17T20:11:31.486Z,86.00
2022-08-17T20:14:14.946Z,85.90
2022-08-17T20:16:41.858Z,86.06
2022-08-17T20:19:19.850Z,85.66
2022-08-17T20:21:54.056Z,85.83
2022-08-17T20:24:25.785Z,85.95
2022-08-17T20:26:59.972Z,86.33
2022-08-17T20:29:51.728Z,86.39
2022-08-17T20:32:28.750Z,86.08
2022-08-17T20:35:41.890Z,85.77
2022-08-17T20:38:36.235Z,85.56
2022-08-17T20:41:03.968Z,85.37
2022-08-17T20:43:33.652Z,85.45
2022-08-17T20:46:10.358Z,85.82
2022-08-17T20:48:42.790Z,85.78
2022-08-17T20:51:33.366Z,85.63
2022-08-17T20:54:07.548Z,85.39
2022-08-17T20:56:43.578Z,85.60
2022-08-17T20:59:25.999Z,85.33
2022-08-17T21:02:18.743Z,85.79
2022-08-17T21:04:53.039Z,85.59
2022-08-17T21:07:41.189Z,85.70
2022-08-17T21:10:10.520Z,86.06
2022-08-17T21:13:08.200Z,86.41
2022-08-17T21:16:08.975Z,87.13
2022-08-17T21:18:52.875Z,86.73
2022-08-17T21:21:41.250Z,86.89
2022-08-17T21:24:28.200Z,86.74
2022-08-17T21:27:05.445Z,86.88
2022-08-17T21:29:38.421Z,87.01
2022-08-17T21:32:09.511Z,87.13
2022-08-17T21:34:43.753Z,87.13
2022-08-17T21:37:23.541Z,87.46
2022-08-17T21:40:19.106Z,87.29
2022-08-17T21:42:49.517Z,87.33
2022-08-17T21:45:29.069Z,87.72
2022-08-17T21:48:11.609Z,87.85
2022-08-17T21:50:41.683Z,87.76
2022-08-17T21:53:22.011Z,87.73
2022-08-17T21:55:50.331Z,87.63
2022-08-17T21:58:33.418Z,87.64
2022-08-17T22:01:28.693Z,88.27
2022-08-17T22:03:58.804Z,88.33
2022-08-17T22:06:35.972Z,88.49
2022-08-17T22:09:25.776Z,88.68
2022-08-17T22:12:04.728Z,89.38
2022-08-17T22:14:53.095Z,89.47
2022-08-17T22:17:28.661Z,90.03
2022-08-17T22:20:01.996Z,89.94
2022-08-17T22:22:34.508Z,89.67
2022-08-17T22:25:05.793Z,89.55
2022-08-17T22:27:54.707Z,89.77
2022-08-17T22:30:27.565Z,89.72
2022-08-17T22:32:55.514Z,89.37
2022-08-17T22:35:42.270Z,89.58
2022-08-17T22:38:21.170Z,89.14
2022-08-17T22:40:50.947Z,89.25
2022-08-17T22:43:25.873Z,88.74
2022-08-17T22:45:57.510Z,88.36
2022-08-17T22:48:27.562Z,88.45
2022-08-17T22:51:12.578Z,88.25
2022-08-17T22:54:08.658Z,88.57
2022-08-17T22:56:54.745Z,88.32
2022-08-17T23:00:00.679Z,87.71
2022-08-17T23:02:34.422Z,88.35
2022-08-17T23:05:10.255Z,88.65
2022-08-17T23:07:37.149Z,88.74
2022-08-17T23:10:06.591Z,88.82
2022-08-17T23:12:39.005Z,89.08
2022-08-17T23:15:14.442Z,89.62
2022-08-17T23:17:42.183Z,89.72
2022-08-17T23:20:14.160Z,89.43
2022-08-17T23:22:52.577Z,89.54
2022-08-17T23:25:27.891Z,89.57
2022-08-17T23:27:55.324Z,89.51
2022-08-17T23:30:25.445Z,90.00
2022-08-17T23:32:54.318Z,89.87
2022-08-17T23:35:39.917Z,89.63
2022-08-17T23:38:09.380Z,89.86
2022-08-17T23:40:36.503Z,90.16
2022-08-17T23:43:09.807Z,90.28
2022-08-17T23:45:44.353Z,90.49
2022-08-17T23:48:11.080Z,90.24
2022-08-17T23:50:38.429Z,90.03
2022-08-17T23:53:06.663Z,90.50
2022-08-17T23:55:34.719Z,90.27
2022-08-17T23:58:02.866Z,90.43
